createdAt,value
2024-03-27T00:01:10.889Z,85.49
2024-03-27T00:03:45.571Z,85.91
2024-03-27T00:06:12.259Z,86.17
2024-03-27T00:08:39.126Z,85.81
2024-03-27T00:11:05.622Z,85.66
2024-03-27T00:13:32.696Z,85.36
2024-03-27T00:15:59.300Z,85.72
2024-03-27T00:18:26.406Z,85.74
2024-03-27T00:20:53.244Z,85.86
2024-03-27T00:23:20.045Z,85.42
2024-03-27T00:25:46.624Z,85.64
2024-03-27T00:28:13.463Z,85.51
2024-03-27T00:30:40.374Z,85.92
2024-03-27T00:33:07.402Z,85.30
2024-03-27T00:35:33.860Z,84.82
2024-03-27T00:38:00.764Z,85.99
2024-03-27T00:40:27.535Z,85.38
2024-03-27T00:42:55.914Z,85.49
2024-03-27T00:45:22.927Z,85.68
2024-03-27T00:47:49.848Z,85.48
2024-03-27T00:50:16.332Z,85.03
2024-03-27T00:52:43.215Z,85.98
2024-03-27T00:55:09.684Z,85.83
2024-03-27T00:57:36.604Z,86.04
2024-03-27T01:00:03.619Z,85.42
2024-03-27T01:02:30.459Z,85.72
2024-03-27T01:04:57.072Z,85.56
2024-03-27T01:07:24.119Z,86.00
2024-03-27T01:09:50.655Z,85.80
2024-03-27T01:12:17.451Z,85.73
2024-03-27T01:14:44.166Z,85.91
2024-03-27T01:17:10.795Z,85.92
2024-03-27T01:19:37.576Z,85.67
2024-03-27T01:22:04.367Z,85.67
2024-03-27T01:24:30.969Z,85.99
2024-03-27T01:26:57.923Z,85.74
2024-03-27T01:29:24.272Z,86.18
2024-03-27T01:31:51.116Z,86.25
2024-03-27T01:34:17.644Z,86.83
2024-03-27T01:36:44.463Z,86.29
2024-03-27T01:39:10.903Z,86.83
2024-03-27T01:41:38.026Z,86.80
2024-03-27T01:44:04.493Z,86.21
2024-03-27T01:46:31.672Z,86.33
2024-03-27T01:48:58.185Z,86.21
2024-03-27T01:51:25.026Z,86.41
2024-03-27T01:53:51.660Z,86.47
2024-03-27T01:56:19.361Z,86.42
2024-03-27T01:58:46.746Z,86.59
2024-03-27T02:01:13.494Z,86.50
2024-03-27T02:03:40.732Z,87.04
2024-03-27T02:06:08.666Z,86.68
2024-03-27T02:08:35.609Z,86.56
2024-03-27T02:11:02.951Z,86.77
2024-03-27T02:13:30.160Z,86.47
2024-03-27T02:16:01.095Z,86.52
2024-03-27T02:18:27.820Z,87.14
2024-03-27T02:21:22.471Z,86.55
2024-03-27T02:24:17.801Z,87.09
2024-03-27T02:26:45.124Z,87.23
2024-03-27T02:29:11.687Z,87.00
2024-03-27T02:31:39.127Z,87.09
2024-03-27T02:34:06.105Z,87.26
2024-03-27T02:36:33.112Z,87.33
2024-03-27T02:38:59.874Z,86.96
2024-03-27T02:41:26.984Z,87.04
2024-03-27T02:43:54.298Z,87.26
2024-03-27T02:46:21.189Z,87.27
2024-03-27T02:48:48.267Z,87.61
2024-03-27T02:51:15.260Z,87.76
2024-03-27T02:53:41.931Z,87.86
2024-03-27T02:56:08.705Z,87.12
2024-03-27T02:58:35.233Z,87.96
2024-03-27T03:01:02.150Z,88.10
2024-03-27T03:03:28.968Z,87.86
2024-03-27T03:05:59.190Z,87.75
2024-03-27T03:08:25.693Z,87.66
2024-03-27T03:10:53.332Z,87.96
2024-03-27T03:13:20.224Z,88.08
2024-03-27T03:15:46.957Z,87.84
2024-03-27T03:18:13.522Z,88.09
2024-03-27T03:20:40.258Z,87.92
2024-03-27T03:23:06.871Z,88.27
2024-03-27T03:25:34.129Z,87.98
2024-03-27T03:28:00.889Z,87.98
2024-03-27T03:30:28.091Z,88.37
2024-03-27T03:32:54.946Z,88.62
2024-03-27T03:35:21.712Z,88.68
2024-03-27T03:37:48.129Z,88.85
2024-03-27T03:40:15.277Z,88.62
2024-03-27T03:42:41.613Z,89.00
2024-03-27T03:45:08.632Z,88.54
2024-03-27T03:47:35.360Z,88.62
2024-03-27T03:50:02.444Z,88.85
2024-03-27T03:52:28.912Z,88.52
2024-03-27T03:54:55.712Z,88.72
2024-03-27T03:57:22.054Z,88.98
2024-03-27T03:59:48.769Z,88.44
2024-03-27T04:02:15.490Z,89.10
2024-03-27T04:04:42.421Z,88.77
2024-03-27T04:07:09.121Z,88.85
2024-03-27T04:09:35.904Z,89.23
2024-03-27T04:12:02.484Z,88.96
2024-03-27T04:14:29.434Z,88.93
2024-03-27T04:16:55.826Z,88.99
2024-03-27T04:19:22.661Z,89.41
2024-03-27T04:21:49.030Z,89.47
2024-03-27T04:24:16.778Z,89.41
2024-03-27T04:26:43.705Z,89.04
2024-03-27T04:29:11.216Z,89.00
2024-03-27T04:31:38.552Z,89.49
2024-03-27T04:34:06.670Z,89.64
2024-03-27T04:36:33.558Z,89.40
2024-03-27T04:39:00.640Z,89.19
2024-03-27T04:41:27.380Z,89.27
2024-03-27T04:43:54.284Z,88.79
2024-03-27T04:46:21.063Z,89.14
2024-03-27T04:48:47.796Z,88.81
2024-03-27T04:51:14.273Z,89.11
2024-03-27T04:53:41.171Z,89.11
2024-03-27T04:56:08.233Z,88.27
2024-03-27T04:58:34.975Z,88.86
2024-03-27T05:01:01.604Z,88.67
2024-03-27T05:03:28.531Z,88.37
2024-03-27T05:05:55.371Z,88.21
2024-03-27T05:08:22.006Z,87.89
2024-03-27T05:10:48.515Z,88.51
2024-03-27T05:13:16.086Z,87.69
2024-03-27T05:15:42.783Z,87.13
2024-03-27T05:18:09.692Z,87.67
2024-03-27T05:20:37.134Z,87.54
2024-03-27T05:23:03.994Z,87.24
2024-03-27T05:25:30.371Z,87.05
2024-03-27T05:27:59.145Z,87.49
2024-03-27T05:30:26.085Z,87.02
2024-03-27T05:32:52.969Z,86.61
2024-03-27T05:35:19.500Z,87.26
2024-03-27T05:37:49.100Z,86.93
2024-03-27T05:40:15.916Z,86.63
2024-03-27T05:42:45.597Z,86.67
2024-03-27T05:45:12.467Z,86.79
2024-03-27T05:47:42.507Z,86.81
2024-03-27T05:50:10.466Z,86.64
2024-03-27T05:52:37.500Z,85.95
2024-03-27T05:55:04.523Z,85.90
2024-03-27T05:57:31.310Z,85.98
2024-03-27T05:59:57.786Z,85.15
2024-03-27T06:02:24.465Z,84.99
2024-03-27T06:04:50.984Z,85.13
2024-03-27T06:07:17.715Z,84.91
2024-03-27T06:09:45.138Z,84.41
2024-03-27T06:12:12.474Z,83.64
2024-03-27T06:14:38.966Z,83.44
2024-03-27T06:17:05.721Z,83.39
2024-03-27T06:19:32.218Z,82.76
2024-03-27T06:21:59.006Z,82.71
2024-03-27T06:24:25.383Z,81.05
2024-03-27T06:26:53.813Z,79.65
2024-03-27T06:29:21.742Z,77.15
2024-03-27T06:31:48.894Z,75.32
2024-03-27T06:34:15.315Z,75.00
2024-03-27T06:36:41.987Z,76.44
2024-03-27T06:39:12.906Z,76.61
2024-03-27T06:41:40.589Z,77.21
2024-03-27T06:44:09.550Z,76.43
2024-03-27T06:46:39.420Z,75.46
2024-03-27T06:49:18.656Z,74.25
2024-03-27T06:51:46.539Z,74.27
2024-03-27T06:54:13.169Z,74.10
2024-03-27T06:56:40.121Z,75.61
2024-03-27T06:59:07.526Z,76.52
2024-03-27T07:01:35.866Z,77.50
2024-03-27T07:04:04.128Z,77.50
2024-03-27T07:06:31.350Z,78.30
2024-03-27T07:08:58.480Z,78.89
2024-03-27T07:11:25.363Z,78.70
2024-03-27T07:13:53.611Z,78.09
2024-03-27T07:16:22.197Z,78.54
2024-03-27T07:18:48.657Z,78.21
2024-03-27T07:21:15.438Z,77.98
2024-03-27T07:23:41.782Z,76.52
2024-03-27T07:26:09.312Z,76.58
2024-03-27T07:28:36.231Z,76.39
2024-03-27T07:31:07.334Z,76.22
2024-03-27T07:33:34.395Z,76.19
2024-03-27T07:36:01.302Z,75.81
2024-03-27T07:38:27.996Z,75.44
2024-03-27T07:40:54.916Z,76.29
2024-03-27T07:43:21.860Z,76.01
2024-03-27T07:45:48.745Z,75.78
2024-03-27T07:48:15.400Z,75.22
2024-03-27T07:50:42.422Z,75.01
2024-03-27T07:53:08.844Z,75.54
2024-03-27T07:55:35.562Z,75.29
2024-03-27T07:58:01.906Z,74.81
2024-03-27T08:00:29.000Z,74.45
2024-03-27T08:02:55.560Z,74.80
2024-03-27T08:05:22.310Z,74.83
2024-03-27T08:07:48.634Z,75.08
2024-03-27T08:10:15.724Z,74.80
2024-03-27T08:12:42.241Z,74.79
2024-03-27T08:15:11.346Z,74.38
2024-03-27T08:17:38.132Z,74.60
2024-03-27T08:20:06.546Z,74.66
2024-03-27T08:22:33.102Z,74.84
2024-03-27T08:24:59.927Z,75.16
2024-03-27T08:27:26.527Z,75.20
2024-03-27T08:29:54.494Z,76.32
2024-03-27T08:32:21.393Z,76.36
2024-03-27T08:34:48.080Z,76.37
2024-03-27T08:37:14.398Z,76.92
2024-03-27T08:39:42.875Z,76.85
2024-03-27T08:42:09.366Z,75.53
2024-03-27T08:44:36.089Z,76.43
2024-03-27T08:47:02.657Z,77.58
2024-03-27T08:49:29.485Z,76.84
2024-03-27T08:51:56.487Z,75.94
2024-03-27T08:54:23.275Z,76.60
2024-03-27T08:56:49.999Z,75.29
2024-03-27T08:59:16.838Z,76.79
2024-03-27T09:01:43.262Z,76.72
2024-03-27T09:04:10.031Z,75.72
2024-03-27T09:06:37.446Z,75.80
2024-03-27T09:09:05.586Z,77.27
2024-03-27T09:11:32.498Z,76.60
2024-03-27T09:13:59.495Z,76.02
2024-03-27T09:16:26.116Z,75.95
2024-03-27T09:18:53.021Z,75.31
2024-03-27T09:21:19.438Z,75.92
2024-03-27T09:23:46.471Z,75.76
2024-03-27T09:26:12.941Z,76.57
2024-03-27T09:28:39.729Z,76.30
2024-03-27T09:31:06.245Z,75.31
2024-03-27T09:33:33.145Z,75.69
2024-03-27T09:36:01.596Z,73.80
2024-03-27T09:38:33.729Z,73.39
2024-03-27T09:41:03.106Z,74.43
2024-03-27T09:43:32.563Z,75.47
2024-03-27T09:45:59.375Z,73.11
2024-03-27T09:48:26.521Z,73.85
2024-03-27T09:50:56.259Z,73.58
2024-03-27T09:53:23.020Z,73.63
2024-03-27T09:55:50.725Z,74.25
2024-03-27T09:58:18.974Z,73.22
2024-03-27T10:00:45.734Z,72.24
2024-03-27T10:03:14.949Z,72.88
2024-03-27T10:05:44.102Z,73.70
2024-03-27T10:08:10.765Z,73.16
2024-03-27T10:10:37.509Z,73.42
2024-03-27T10:13:05.017Z,72.48
2024-03-27T10:15:33.683Z,72.62
2024-03-27T10:18:00.436Z,73.64
2024-03-27T10:20:26.824Z,72.29
2024-03-27T10:22:53.525Z,71.90
2024-03-27T10:25:20.979Z,72.73
2024-03-27T10:27:48.613Z,70.97
2024-03-27T10:30:15.237Z,71.47
2024-03-27T10:32:41.925Z,71.72
2024-03-27T10:35:09.196Z,72.38
2024-03-27T10:37:36.361Z,72.32
2024-03-27T10:40:08.314Z,73.25
2024-03-27T10:42:39.345Z,72.98
2024-03-27T10:45:07.091Z,72.70
2024-03-27T10:47:34.762Z,72.51
2024-03-27T10:50:04.955Z,72.97
2024-03-27T10:52:32.833Z,74.45
2024-03-27T10:55:01.590Z,73.35
2024-03-27T10:57:28.776Z,73.55
2024-03-27T10:59:57.836Z,73.57
2024-03-27T11:02:24.599Z,73.09
2024-03-27T11:05:05.006Z,74.00
2024-03-27T11:07:35.975Z,72.75
2024-03-27T11:10:02.999Z,73.47
2024-03-27T11:12:30.459Z,73.78
2024-03-27T11:15:04.599Z,72.27
2024-03-27T11:17:32.476Z,72.98
2024-03-27T11:20:05.274Z,73.41
2024-03-27T11:22:36.491Z,73.69
2024-03-27T11:25:09.891Z,72.06
2024-03-27T11:27:38.031Z,71.37
2024-03-27T11:30:04.993Z,71.16
2024-03-27T11:32:37.687Z,72.70
2024-03-27T11:35:05.082Z,70.97
2024-03-27T11:37:31.998Z,71.17
2024-03-27T11:40:18.247Z,70.75
2024-03-27T11:42:45.210Z,71.53
2024-03-27T11:45:11.967Z,72.16
2024-03-27T11:47:39.183Z,70.90
2024-03-27T11:50:08.482Z,69.85
2024-03-27T11:52:35.495Z,71.29
2024-03-27T11:55:01.992Z,71.24
2024-03-27T11:57:30.237Z,71.31
2024-03-27T12:00:05.609Z,72.32
2024-03-27T12:02:35.116Z,71.76
2024-03-27T12:05:04.670Z,72.28
2024-03-27T12:07:36.086Z,72.91
2024-03-27T12:10:09.844Z,72.57
2024-03-27T12:12:36.858Z,72.52
2024-03-27T12:15:03.713Z,72.77
2024-03-27T12:17:40.057Z,73.27
2024-03-27T12:20:12.556Z,73.18
2024-03-27T12:22:39.296Z,73.98
2024-03-27T12:25:05.999Z,74.68
2024-03-27T12:27:33.855Z,74.53
2024-03-27T12:30:00.729Z,74.35
2024-03-27T12:32:29.034Z,74.15
2024-03-27T12:34:57.472Z,74.47
2024-03-27T12:37:25.962Z,74.38
2024-03-27T12:39:52.333Z,74.20
2024-03-27T12:42:19.071Z,74.60
2024-03-27T12:44:45.425Z,73.69
2024-03-27T12:47:12.100Z,74.62
2024-03-27T12:49:38.495Z,73.09
2024-03-27T12:52:05.164Z,72.94
2024-03-27T12:54:32.704Z,73.86
2024-03-27T12:57:00.830Z,73.39
2024-03-27T12:59:27.365Z,73.30
2024-03-27T13:01:54.522Z,73.12
2024-03-27T13:04:22.500Z,72.89
2024-03-27T13:06:49.463Z,72.81
2024-03-27T13:09:16.006Z,72.92
2024-03-27T13:11:44.124Z,71.91
2024-03-27T13:14:10.789Z,70.62
2024-03-27T13:16:37.909Z,72.02
2024-03-27T13:19:05.064Z,71.50
2024-03-27T13:21:32.221Z,72.24
2024-03-27T13:23:58.803Z,72.40
2024-03-27T13:26:26.184Z,72.09
2024-03-27T13:28:52.775Z,72.23
2024-03-27T13:31:20.172Z,72.38
2024-03-27T13:33:46.795Z,72.50
2024-03-27T13:36:13.816Z,72.46
2024-03-27T13:38:40.427Z,72.09
2024-03-27T13:41:07.384Z,73.18
2024-03-27T13:43:33.763Z,73.18
2024-03-27T13:46:01.533Z,73.37
2024-03-27T13:48:29.581Z,73.72
2024-03-27T13:50:57.099Z,73.93
2024-03-27T13:53:23.611Z,74.47
2024-03-27T13:55:50.376Z,74.14
2024-03-27T13:58:16.917Z,75.01
2024-03-27T14:00:43.671Z,74.52
2024-03-27T14:03:10.069Z,75.03
2024-03-27T14:05:37.449Z,75.19
2024-03-27T14:08:06.070Z,75.28
2024-03-27T14:10:34.393Z,75.79
2024-03-27T14:13:02.158Z,75.34
2024-03-27T14:15:29.558Z,75.28
2024-03-27T14:17:56.144Z,75.74
2024-03-27T14:20:23.135Z,75.94
2024-03-27T14:22:49.575Z,76.70
2024-03-27T14:25:17.226Z,76.23
2024-03-27T14:27:43.610Z,76.84
2024-03-27T14:30:10.933Z,76.91
2024-03-27T14:32:37.395Z,77.02
2024-03-27T14:35:05.029Z,76.97
2024-03-27T14:37:31.519Z,77.35
2024-03-27T14:39:58.286Z,77.53
2024-03-27T14:42:25.643Z,77.58
2024-03-27T14:44:52.267Z,78.04
2024-03-27T14:47:18.845Z,77.43
2024-03-27T14:49:45.755Z,78.05
2024-03-27T14:52:12.485Z,78.29
2024-03-27T14:54:39.203Z,77.80
2024-03-27T14:57:05.749Z,78.43
2024-03-27T14:59:32.642Z,78.27
2024-03-27T15:01:59.191Z,78.81
2024-03-27T15:04:26.195Z,77.77
2024-03-27T15:06:53.419Z,77.84
2024-03-27T15:09:22.048Z,78.34
2024-03-27T15:11:50.964Z,77.87
2024-03-27T15:14:17.661Z,78.34
2024-03-27T15:16:44.111Z,78.47
2024-03-27T15:19:11.055Z,78.91
2024-03-27T15:21:37.565Z,78.63
2024-03-27T15:24:05.255Z,79.13
2024-03-27T15:26:31.974Z,79.08
2024-03-27T15:28:59.172Z,79.23
2024-03-27T15:31:25.658Z,79.70
2024-03-27T15:33:52.533Z,80.46
2024-03-27T15:36:19.135Z,80.79
2024-03-27T15:38:46.000Z,80.22
2024-03-27T15:41:13.528Z,80.99
2024-03-27T15:43:40.260Z,81.78
2024-03-27T15:46:06.687Z,81.71
2024-03-27T15:48:33.743Z,81.74
2024-03-27T15:51:00.407Z,82.00
2024-03-27T15:53:27.316Z,81.25
2024-03-27T15:55:53.765Z,81.85
2024-03-27T15:58:20.656Z,82.31
2024-03-27T16:00:48.599Z,82.61
2024-03-27T16:03:15.422Z,82.51
2024-03-27T16:05:42.206Z,83.22
2024-03-27T16:08:09.031Z,83.01
2024-03-27T16:10:35.793Z,82.88
2024-03-27T16:13:02.943Z,83.01
2024-03-27T16:15:29.518Z,83.31
2024-03-27T16:17:56.420Z,83.37
2024-03-27T16:20:23.154Z,83.20
2024-03-27T16:22:51.985Z,83.26
2024-03-27T16:25:19.599Z,83.80
2024-03-27T16:27:46.346Z,84.26
2024-03-27T16:30:12.834Z,84.28
2024-03-27T16:32:39.586Z,84.55
2024-03-27T16:35:06.459Z,85.26
2024-03-27T16:37:33.213Z,85.36
2024-03-27T16:39:59.937Z,85.16
2024-03-27T16:42:26.913Z,84.93
2024-03-27T16:44:53.458Z,84.97
2024-03-27T16:47:20.384Z,85.01
2024-03-27T16:49:47.753Z,85.11
2024-03-27T16:52:14.777Z,85.10
2024-03-27T16:54:44.675Z,85.11
2024-03-27T16:57:12.185Z,84.95
2024-03-27T16:59:38.588Z,84.92
2024-03-27T17:02:05.729Z,85.02
2024-03-27T17:04:32.116Z,85.01
2024-03-27T17:06:58.845Z,85.40
2024-03-27T17:09:25.276Z,85.42
2024-03-27T17:11:52.189Z,86.04
2024-03-27T17:14:18.578Z,86.10
2024-03-27T17:16:45.603Z,85.99
2024-03-27T17:19:12.029Z,86.46
2024-03-27T17:21:39.037Z,86.55
2024-03-27T17:24:06.371Z,86.70
2024-03-27T17:26:33.997Z,86.91
2024-03-27T17:29:01.724Z,87.40
2024-03-27T17:31:28.506Z,87.63
2024-03-27T17:33:54.918Z,87.54
2024-03-27T17:36:21.903Z,88.07
2024-03-27T17:38:51.089Z,88.51
2024-03-27T17:41:18.072Z,88.59
2024-03-27T17:43:44.638Z,88.94
2024-03-27T17:46:11.335Z,89.26
2024-03-27T17:48:37.886Z,89.57
2024-03-27T17:51:05.018Z,89.91
2024-03-27T17:53:35.229Z,90.00
2024-03-27T17:56:03.703Z,89.80
2024-03-27T17:58:32.276Z,89.94
2024-03-27T18:01:12.867Z,90.04
2024-03-27T18:03:40.040Z,90.27
2024-03-27T18:06:09.205Z,90.21
2024-03-27T18:08:36.117Z,90.10
2024-03-27T18:11:04.388Z,90.33
2024-03-27T18:13:31.312Z,90.36
2024-03-27T18:16:03.258Z,90.14
2024-03-27T18:18:30.531Z,90.64
2024-03-27T18:20:59.003Z,90.98
2024-03-27T18:23:26.128Z,90.96
2024-03-27T18:25:53.252Z,91.05
2024-03-27T18:28:21.725Z,90.89
2024-03-27T18:31:00.422Z,90.58
2024-03-27T18:33:27.625Z,89.76
2024-03-27T18:35:54.629Z,89.71
2024-03-27T18:38:21.534Z,89.43
2024-03-27T18:40:48.923Z,89.31
2024-03-27T18:43:15.485Z,89.71
2024-03-27T18:45:48.345Z,89.75
2024-03-27T18:48:14.838Z,89.89
2024-03-27T18:50:41.909Z,90.10
2024-03-27T18:53:08.499Z,90.20
2024-03-27T18:55:35.515Z,90.35
2024-03-27T18:58:03.521Z,90.17
2024-03-27T19:00:30.403Z,90.24
2024-03-27T19:02:57.088Z,90.60
2024-03-27T19:05:23.851Z,90.02
2024-03-27T19:07:50.265Z,90.68
2024-03-27T19:10:17.098Z,90.83
2024-03-27T19:12:43.663Z,90.65
2024-03-27T19:15:10.608Z,90.66
2024-03-27T19:17:37.047Z,90.65
2024-03-27T19:20:04.860Z,90.43
2024-03-27T19:22:34.025Z,90.56
2024-03-27T19:25:01.034Z,90.67
2024-03-27T19:27:27.833Z,90.67
2024-03-27T19:29:54.572Z,90.94
2024-03-27T19:32:21.242Z,90.65
2024-03-27T19:34:48.508Z,91.03
2024-03-27T19:37:15.296Z,91.29
2024-03-27T19:39:42.054Z,91.11
2024-03-27T19:42:09.998Z,90.70
2024-03-27T19:44:36.982Z,91.06
2024-03-27T19:47:03.511Z,91.17
2024-03-27T19:49:30.387Z,91.45
2024-03-27T19:52:09.586Z,91.88
2024-03-27T19:54:42.140Z,91.81
2024-03-27T19:57:08.552Z,91.89
2024-03-27T19:59:35.468Z,92.28
2024-03-27T20:02:01.920Z,92.38
2024-03-27T20:04:28.595Z,92.40
2024-03-27T20:06:55.237Z,93.00
2024-03-27T20:09:22.145Z,93.18
2024-03-27T20:11:48.511Z,93.11
2024-03-27T20:14:15.343Z,93.79
2024-03-27T20:16:43.002Z,94.10
2024-03-27T20:19:09.854Z,93.87
2024-03-27T20:21:36.354Z,94.48
2024-03-27T20:24:03.343Z,94.68
2024-03-27T20:26:30.473Z,94.82
2024-03-27T20:28:57.325Z,94.72
2024-03-27T20:31:23.804Z,94.55
2024-03-27T20:33:50.953Z,94.56
2024-03-27T20:36:17.544Z,94.66
2024-03-27T20:38:44.502Z,94.36
2024-03-27T20:41:11.518Z,94.44
2024-03-27T20:43:38.239Z,94.67
2024-03-27T20:46:08.369Z,94.38
2024-03-27T20:48:35.448Z,94.80
2024-03-27T20:51:05.125Z,94.57
2024-03-27T20:53:31.981Z,94.58
2024-03-27T20:55:58.785Z,94.77
2024-03-27T20:58:25.561Z,94.71
2024-03-27T21:00:53.150Z,94.78
2024-03-27T21:03:20.195Z,95.03
2024-03-27T21:05:47.290Z,95.07
2024-03-27T21:08:14.093Z,95.06
2024-03-27T21:10:49.009Z,95.00
2024-03-27T21:13:16.322Z,95.11
2024-03-27T21:15:46.117Z,95.24
2024-03-27T21:18:13.287Z,95.09
2024-03-27T21:20:40.007Z,95.22
2024-03-27T21:23:07.423Z,95.23
2024-03-27T21:25:34.154Z,95.13
2024-03-27T21:28:01.131Z,94.87
2024-03-27T21:30:27.651Z,94.77
2024-03-27T21:32:54.617Z,94.89
2024-03-27T21:35:21.528Z,94.83
2024-03-27T21:37:48.752Z,94.52
2024-03-27T21:40:15.242Z,94.60
2024-03-27T21:42:42.316Z,94.63
2024-03-27T21:45:09.392Z,94.63
2024-03-27T21:47:36.474Z,94.98
2024-03-27T21:50:02.957Z,95.02
2024-03-27T21:52:29.850Z,94.64
2024-03-27T21:54:57.285Z,94.38
2024-03-27T21:57:24.359Z,94.57
2024-03-27T21:59:50.849Z,94.73
2024-03-27T22:02:17.909Z,94.38
2024-03-27T22:04:44.769Z,94.42
2024-03-27T22:07:11.511Z,94.16
2024-03-27T22:09:37.988Z,94.31
2024-03-27T22:12:05.417Z,93.85
2024-03-27T22:14:31.796Z,93.96
2024-03-27T22:16:58.502Z,93.95
2024-03-27T22:19:25.140Z,94.20
2024-03-27T22:21:51.755Z,94.01
2024-03-27T22:24:20.153Z,94.04
2024-03-27T22:26:47.745Z,93.90
2024-03-27T22:29:14.307Z,93.82
2024-03-27T22:31:41.168Z,94.01
2024-03-27T22:34:08.455Z,93.93
2024-03-27T22:36:35.561Z,94.08
2024-03-27T22:39:01.927Z,94.04
2024-03-27T22:41:33.095Z,93.81
2024-03-27T22:43:59.783Z,94.05
2024-03-27T22:46:26.748Z,94.29
2024-03-27T22:48:57.275Z,93.99
2024-03-27T22:51:28.594Z,94.22
2024-03-27T22:53:55.209Z,94.48
2024-03-27T22:56:22.347Z,94.49
2024-03-27T22:58:48.790Z,94.39
2024-03-27T23:01:18.947Z,94.59
2024-03-27T23:03:45.572Z,94.57
2024-03-27T23:06:12.511Z,94.71
2024-03-27T23:08:38.865Z,94.49
2024-03-27T23:11:06.020Z,94.95
2024-03-27T23:13:32.579Z,94.81
2024-03-27T23:16:00.073Z,94.96
2024-03-27T23:18:26.582Z,95.26
2024-03-27T23:20:54.499Z,95.12
2024-03-27T23:23:20.806Z,95.67
2024-03-27T23:25:48.025Z,95.66
2024-03-27T23:28:14.708Z,95.66
2024-03-27T23:30:43.672Z,95.37
2024-03-27T23:33:10.015Z,95.78
2024-03-27T23:35:36.668Z,95.84
2024-03-27T23:38:03.536Z,95.92
2024-03-27T23:40:30.497Z,96.00
2024-03-27T23:42:56.875Z,96.03
2024-03-27T23:45:23.610Z,96.07
2024-03-27T23:47:50.553Z,96.35
2024-03-27T23:50:17.313Z,96.67
2024-03-27T23:52:43.788Z,96.61
2024-03-27T23:55:10.534Z,96.15
2024-03-27T23:57:37.338Z,96.22
